Latest Weather Observations for Evans Head

IDN60801

Issued at 5:32 am EDT Tuesday 21 November 2017 (issued every 30 minutes, with the page automatically refreshed every 10 minutes)

About weather observations | Map of weather stations | Latest weather observations for NSW | Other Formats
Station Details ID: 058212 Name: EVANS HEAD RAAF BOMBING RANGE AWS Lat: -29.18 Lon: 153.40 Height: 62.5 m
Data from the previous 72 hours. | See also: Recent months at Evans Head
Date/Time
EDT
Temp
°C
App
Temp
°C
Dew
Point
°C
Rel
Hum
%
Delta-T
°C
Wind Press
QNH
hPa
Press
MSL
hPa
Rain since
9am
mm
Dir  Spd
km/h
Gust
km/h
Spd
kts
Gust
kts
21/05:30am 19.1 16.6 14.1 73 2.9 SE 20 28 11 15 1019.2 1018.9 1.6
21/05:00am 18.8 17.5 14.7 77 2.4 SSE 15 20 8 11 1018.9 1018.6 1.6
21/04:30am 18.9 17.0 14.2 74 2.7 SE 17 22 9 12 1018.9 1018.6 1.6
21/04:00am 18.9 16.6 14.0 73 2.8 SSE 19 28 10 15 1019.0 1018.7 1.6
21/03:30am 19.0 16.8 14.5 75 2.6 SE 19 26 10 14 1018.9 1018.6 1.6
21/03:00am 18.6 16.3 14.1 75 2.6 SSE 19 26 10 14 1019.1 1018.8 1.6
21/02:30am 18.5 16.0 14.0 75 2.6 SSE 20 28 11 15 1019.4 1019.1 1.6
21/02:00am 18.7 15.3 13.8 73 2.8 SSE 24 30 13 16 1019.7 1019.5 1.6
21/01:30am 19.4 15.7 13.8 70 3.2 SSE 26 33 14 18 1019.9 1019.7 1.6
21/01:00am 19.2 16.8 14.5 74 2.7 SE 20 28 11 15 1020.2 1020.0 1.6
21/12:30am 19.4 16.3 14.4 73 2.9 SE 24 32 13 17 1020.5 1020.3 1.6
21/12:00am 19.2 16.7 14.2 73 2.9 SE 20 28 11 15 1020.8 1020.6 1.6
 
Date/Time
EDT
Temp
°C
App
Temp
°C
Dew
Point
°C
Rel
Hum
%
Delta-T
°C
Wind Press
QNH
hPa
Press
MSL
hPa
Rain since
9am
mm
Dir  Spd
km/h
Gust
km/h
Spd
kts
Gust
kts
20/11:30pm 19.4 16.3 14.4 73 2.9 SE 24 33 13 18 1020.8 1020.6 1.6
20/11:00pm 19.2 16.0 14.2 73 2.9 SE 24 33 13 18 1020.9 1020.7 1.6
20/10:30pm 19.0 15.8 15.3 79 2.2 SE 26 33 14 18 1021.1 1020.9 1.6
20/10:00pm 19.5 18.0 15.4 77 2.4 SE 17 26 9 14 1021.1 1020.9 1.4
20/09:30pm 19.0 17.6 15.5 80 2.1 SSE 17 22 9 12 1021.0 1020.8 1.4
20/09:00pm 18.8 17.4 15.5 81 1.9 SSE 17 22 9 12 1020.9 1020.7 1.4
20/08:30pm 18.8 17.5 15.7 82 1.8 SSE 17 22 9 12 1020.8 1020.6 1.4
20/08:00pm 19.1 17.4 15.8 81 2.0 SSE 19 24 10 13 1020.7 1020.5 1.4
20/07:30pm 19.3 18.0 15.8 80 2.1 SSE 17 22 9 12 1020.7 1020.5 1.4
20/07:00pm 19.7 18.6 16.3 81 2.0 SSE 17 22 9 12 1020.5 1020.3 1.4
20/06:30pm 19.5 19.8 16.9 85 1.6 SSW 11 19 6 10 1020.3 1020.1 1.4
20/06:00pm 20.7 20.6 16.9 79 2.3 SSW 13 19 7 10 1020.0 1019.8 1.4
20/05:30pm 19.9 19.6 16.5 81 2.1 S 13 19 7 10 1020.0 1019.8 1.4
20/05:00pm 19.3 19.5 16.7 85 1.6 S 11 15 6 8 1020.1 1019.9 1.4
20/04:30pm 18.6 15.7 15.1 80 2.1 S 24 32 13 17 1020.4 1020.2 1.4
20/04:00pm 21.2 20.5 17.4 79 2.3 S 17 26 9 14 1020.4 1020.2 1.4
20/03:30pm 20.2 19.3 18.1 88 1.3 S 20 30 11 16 1020.5 1020.3 1.4
20/03:00pm 18.7 18.2 17.7 94 0.6 SSW 17 24 9 13 1020.7 1020.5 1.4
20/02:30pm 19.0 16.4 15.9 82 1.8 S 24 37 13 20 1020.8 1020.6 0.0
20/02:00pm 20.8 19.4 15.6 72 3.1 SSE 17 20 9 11 1021.1 1020.9 0.0
20/01:30pm 22.3 19.7 15.9 67 3.9 SE 24 33 13 18 1021.3 1021.1 0.0
20/01:00pm 20.3 17.9 15.5 74 2.8 SE 22 32 12 17 1021.3 1021.1 0.0
20/12:30pm 22.6 18.2 15.2 63 4.4 SE 32 43 17 23 1021.2 1021.0 0.0
20/12:00pm 21.8 17.3 14.9 65 4.1 SE 32 43 17 23 1021.4 1021.2 0.0
20/11:30am 23.3 20.3 15.9 63 4.5 SE 26 39 14 21 1021.3 1021.1 0.0
20/11:00am 22.7 19.9 15.3 63 4.4 SSE 24 32 13 17 1021.5 1021.3 0.0
20/10:30am 22.6 20.9 16.2 67 3.9 SE 20 32 11 17 1021.4 1021.2 0.0
20/10:00am 22.0 20.9 16.3 70 3.4 SSE 17 24 9 13 1021.1 1020.9 0.0
20/09:30am 21.5 19.6 15.8 70 3.4 S 20 28 11 15 1021.0 1020.8 0.0
20/09:00am 20.9 18.2 15.7 72 3.1 S 24 32 13 17 1021.0 1020.8 0.0
20/08:30am 21.8 18.6 15.4 67 3.8 SSE 26 37 14 20 1020.9 1020.7 0.0
20/08:00am 22.3 20.0 14.2 60 4.7 SSE 19 24 10 13 1020.7 1020.5 0.0
20/07:30am 22.1 19.6 14.0 60 4.7 SSE 20 26 11 14 1020.3 1020.1 0.0
20/07:00am 20.9 18.4 13.4 62 4.3 SSE 19 26 10 14 1020.0 1019.8 0.0
20/06:30am 19.8 16.9 13.0 65 3.9 SE 20 32 11 17 1019.7 1019.5 0.0
20/06:00am 18.9 15.9 12.6 67 3.5 SE 20 30 11 16 1019.3 1019.0 0.0
20/05:30am 18.6 15.7 12.8 69 3.3 SE 20 33 11 18 1019.0 1018.7 0.0
20/05:00am 18.8 16.0 13.2 70 3.2 SE 20 30 11 16 1018.8 1018.5 0.0
20/04:30am 18.6 15.9 13.5 72 2.9 SSE 20 30 11 16 1018.7 1018.4 0.0
20/04:00am 18.5 15.8 12.9 70 3.1 SSE 19 24 10 13 1018.8 1018.5 0.0
20/03:30am 18.7 15.4 12.9 69 3.3 SSE 22 30 12 16 1018.9 1018.6 0.0
20/03:00am 18.9 16.2 13.5 71 3.1 SSE 20 28 11 15 1018.9 1018.6 0.0
20/02:30am 18.8 16.1 13.4 71 3.1 SSE 20 26 11 14 1019.1 1018.8 0.0
20/02:00am 19.0 16.4 13.8 72 3.0 SE 20 28 11 15 1019.2 1018.9 0.0
20/01:30am 19.2 16.9 14.0 72 3.0 SE 19 26 10 14 1019.5 1019.3 0.0
20/01:00am 19.3 16.2 13.5 69 3.3 SE 22 32 12 17 1019.7 1019.5 0.0
20/12:30am 19.6 16.8 13.3 67 3.6 SE 20 28 11 15 1020.1 1019.9 0.0
20/12:00am 20.0 16.9 14.6 71 3.1 SE 24 35 13 19 1020.2 1020.0 0.0
 
Date/Time
EDT
Temp
°C
App
Temp
°C
Dew
Point
°C
Rel
Hum
%
Delta-T
°C
Wind Press
QNH
hPa
Press
MSL
hPa
Rain since
9am
mm
Dir  Spd
km/h
Gust
km/h
Spd
kts
Gust
kts
19/11:30pm 19.2 18.8 15.3 78 2.3 ESE 11 17 6 9 1020.4 1020.2 0.0
19/11:00pm 19.0 16.9 15.3 79 2.2 SE 20 28 11 15 1020.5 1020.3 0.0
19/10:30pm 19.0 16.8 14.9 77 2.4 ESE 20 33 11 18 1020.6 1020.4 0.0
19/10:00pm 19.5 16.6 15.2 76 2.5 SSE 24 33 13 18 1020.4 1020.2 0.0
19/09:30pm 19.7 17.9 15.4 76 2.5 SE 19 26 10 14 1020.2 1020.0 0.0
19/09:00pm 19.5 18.0 15.4 77 2.4 SE 17 22 9 12 1020.0 1019.8 0.0
19/08:30pm 19.5 17.9 15.0 75 2.6 SE 17 22 9 12 1019.7 1019.5 0.0
19/08:00pm 19.6 18.1 15.3 76 2.5 SE 17 24 9 13 1019.5 1019.3 0.0
19/07:30pm 19.9 17.9 14.9 73 2.9 SSE 19 24 10 13 1019.4 1019.1 0.0
19/07:00pm 20.4 18.9 15.4 73 3.0 SSE 17 22 9 12 1019.1 1018.8 0.0
19/06:30pm 20.8 20.1 15.4 71 3.2 SSE 13 20 7 11 1018.9 1018.6 0.0
19/06:00pm 21.2 19.9 14.8 67 3.8 SE 15 20 8 11 1018.7 1018.4 0.0
19/05:30pm 22.3 20.1 14.4 61 4.6 SE 19 24 10 13 1018.6 1018.3 0.0
19/05:00pm 23.5 21.1 13.9 55 5.6 SE 19 24 10 13 1018.5 1018.2 0.0
19/04:30pm 23.4 21.7 14.7 58 5.2 ESE 17 22 9 12 1018.6 1018.3 0.0
19/04:00pm 23.0 20.7 14.0 57 5.3 ESE 19 24 10 13 1018.7 1018.4 0.0
19/03:30pm 23.6 21.5 14.6 57 5.3 ESE 19 28 10 15 1018.8 1018.5 0.0
19/03:00pm 23.8 21.7 14.8 57 5.4 ESE 19 28 10 15 1019.1 1018.8 0.0
19/02:30pm 24.5 22.4 15.1 55 5.6 SE 20 26 11 14 1019.3 1019.0 0.0
19/02:00pm 23.6 20.5 13.5 53 5.9 SE 22 32 12 17 1019.6 1019.4 0.0
19/01:30pm 24.6 22.3 14.7 54 5.9 SE 20 28 11 15 1019.7 1019.5 0.0
19/01:00pm 24.5 21.4 14.6 54 5.9 SE 24 35 13 19 1019.8 1019.6 0.0
19/12:30pm 25.3 22.5 15.3 54 6.0 SE 24 33 13 18 1020.0 1019.8 0.0
19/12:00pm 24.3 20.8 14.4 54 5.9 ESE 26 37 14 20 1020.1 1019.9 0.0
19/11:30am 25.1 22.0 14.6 52 6.3 SE 24 33 13 18 1020.1 1019.9 0.0
19/11:00am 24.1 21.9 15.9 60 5.0 ESE 22 37 12 20 1020.0 1019.8 0.0
19/10:30am 23.7 21.1 16.0 62 4.7 ESE 24 33 13 18 1019.8 1019.6 0.0
19/10:00am 23.4 21.0 15.5 61 4.7 ESE 22 32 12 17 1019.5 1019.3 0.0
19/09:30am 23.8 22.1 16.3 63 4.6 ESE 20 26 11 14 1019.3 1019.0 0.0
19/09:00am 22.4 19.0 14.8 62 4.5 ESE 26 32 14 17 1019.2 1018.9 0.8
19/08:30am 21.8 18.9 16.1 70 3.4 ESE 26 35 14 19 1019.0 1018.7 0.8
19/08:00am 22.8 21.9 17.7 73 3.2 ESE 19 28 10 15 1018.7 1018.4 0.8
19/07:30am 20.7 20.1 15.7 73 3.0 E 13 17 7 9 1018.3 1018.0 0.8
19/07:00am 18.2 19.2 15.3 83 1.7 WNW 4 6 2 3 1017.8 1017.5 0.8
19/06:30am 17.7 18.3 15.3 86 1.4 SSE 6 9 3 5 1017.4 1017.1 0.8
19/06:00am 16.3 16.3 15.3 94 0.6 WSW 9 13 5 7 1017.3 1017.0 0.8
19/05:30am 16.5 16.6 15.4 93 0.6 WSW 9 11 5 6 1016.8 1016.5 0.8
19/05:00am 16.5 16.2 15.4 93 0.6 WSW 11 15 6 8 1016.7 1016.4 0.8
19/04:30am 17.0 17.0 15.3 90 1.0 SW 9 13 5 7 1016.7 1016.4 0.8
19/04:00am 17.4 17.4 15.2 87 1.3 WSW 9 13 5 7 1016.9 1016.6 0.8
19/03:30am 18.2 19.5 15.1 82 1.8 NNW 2 6 1 3 1017.0 1016.7 0.8
19/03:00am 18.5 19.0 15.0 80 2.0 NNE 6 7 3 4 1017.0 1016.7 0.8
19/02:30am 18.7 19.1 15.2 80 2.1 NNE 7 15 4 8 1017.0 1016.7 0.8
19/02:00am 19.7 18.1 15.1 75 2.7 ENE 17 24 9 13 1017.1 1016.8 0.8
19/01:30am 19.6 18.5 15.3 76 2.5 ENE 15 24 8 13 1017.4 1017.1 0.8
19/01:00am 19.7 18.8 14.9 74 2.8 ENE 13 17 7 9 1017.6 1017.3 0.8
19/12:30am 19.7 19.0 15.4 76 2.5 ENE 13 22 7 12 1018.0 1017.7 0.8
19/12:00am 19.5 18.4 15.4 77 2.4 ENE 15 22 8 12 1018.3 1018.0 0.8
 
Date/Time
EDT
Temp
°C
App
Temp
°C
Dew
Point
°C
Rel
Hum
%
Delta-T
°C
Wind Press
QNH
hPa
Press
MSL
hPa
Rain since
9am
mm
Dir  Spd
km/h
Gust
km/h
Spd
kts
Gust
kts
18/11:30pm 19.5 17.8 14.7 74 2.8 E 17 26 9 14 1018.4 1018.1 0.8
18/11:00pm 19.4 17.4 14.9 75 2.6 E 19 30 10 16 1018.4 1018.1 0.8
18/10:30pm 18.8 17.0 15.5 81 1.9 ESE 19 30 10 16 1018.5 1018.2 0.8
18/10:00pm 18.3 16.8 15.4 83 1.7 E 17 28 9 15 1018.9 1018.6 0.8
18/09:30pm 18.8 15.9 13.0 69 3.3 SE 20 28 11 15 1018.7 1018.4 0.2
18/09:00pm 19.2 15.1 13.8 71 3.1 ESE 28 39 15 21 1018.7 1018.4 0.2
18/08:30pm 20.0 18.5 15.4 75 2.7 ESE 17 24 9 13 1018.4 1018.1 0.2
18/08:00pm 20.2 18.6 13.9 67 3.6 ESE 15 20 8 11 1018.2 1017.9 0.2
18/07:30pm 20.2 18.3 14.1 68 3.5 ESE 17 22 9 12 1018.0 1017.7 0.2
18/07:00pm 20.2 18.7 14.3 69 3.4 E 15 20 8 11 1017.7 1017.4 0.2
18/06:30pm 20.6 18.6 13.8 65 3.9 E 17 20 9 11 1017.4 1017.1 0.2
18/06:00pm 20.3 19.8 14.9 71 3.2 E 11 17 6 9 1017.1 1016.8 0.2
18/05:30pm 20.1 19.6 14.9 72 3.1 ESE 11 19 6 10 1017.0 1016.7 0.2
18/05:00pm 20.3 19.4 14.9 71 3.2 E 13 19 7 10 1017.0 1016.7 0.0
18/04:30pm 20.0 19.3 15.4 75 2.7 E 13 20 7 11 1017.0 1016.7 0.0
18/04:00pm 20.6 18.2 13.8 65 3.9 ENE 19 28 10 15 1017.0 1016.7 0.0
18/03:30pm 21.4 20.3 15.3 68 3.6 E 15 24 8 13 1017.0 1016.7 0.0
18/03:00pm 22.0 20.2 15.4 66 3.9 ENE 19 26 10 14 1017.1 1016.8 0.0
18/02:30pm 23.1 21.8 15.7 63 4.5 ENE 17 26 9 14 1017.4 1017.1 0.0
18/02:00pm 22.7 19.7 14.8 61 4.7 ENE 24 30 13 16 1017.6 1017.3 0.0
18/01:30pm 22.2 20.1 15.1 64 4.2 ENE 20 30 11 16 1017.8 1017.5 0.0
18/01:00pm 22.5 20.1 14.4 60 4.8 ENE 20 28 11 15 1017.8 1017.5 0.0
18/12:30pm 23.5 21.1 15.3 60 4.9 ENE 22 33 12 18 1017.9 1017.6 0.0
18/12:00pm 22.8 20.8 15.6 64 4.3 ENE 20 32 11 17 1018.0 1017.7 0.0
18/11:30am 22.1 19.7 14.5 62 4.5 ENE 20 28 11 15 1018.1 1017.8 0.0
18/11:00am 22.4 20.0 14.3 60 4.8 ENE 20 32 11 17 1018.2 1017.9 0.0
18/10:30am 22.1 20.1 15.5 66 4.0 ENE 20 28 11 15 1018.2 1017.9 0.0
18/10:00am 21.6 19.8 15.4 68 3.7 ENE 19 32 10 17 1018.2 1017.9 0.0
18/09:30am 21.9 19.8 14.8 64 4.2 ENE 19 26 10 14 1018.3 1018.0 0.0
18/09:00am 22.1 19.9 14.5 62 4.5 ENE 19 30 10 16 1018.2 1017.9 0.6
18/08:30am 21.7 19.5 14.8 65 4.1 ENE 20 26 11 14 1018.3 1018.0 0.6
18/08:00am 22.4 20.6 15.5 65 4.1 NE 19 32 10 17 1018.2 1017.9 0.6
18/07:30am 21.3 19.1 14.9 67 3.8 NE 20 30 11 16 1017.8 1017.5 0.6
18/07:00am 20.6 19.1 15.2 71 3.2 NE 17 26 9 14 1017.5 1017.2 0.6
18/06:30am 20.1 19.3 15.1 73 2.9 NE 13 20 7 11 1017.4 1017.1 0.6
18/06:00am 20.1 18.6 15.3 74 2.8 ENE 17 24 9 13 1017.1 1016.8 0.6

Other Formats:

Comma delimited format used in spreadsheet applications
http://www.bom.gov.au/fwo/IDN60801/IDN60801.94598.axf

JavaScript Object Notation format (JSON) in row-major order
http://www.bom.gov.au/fwo/IDN60801/IDN60801.94598.json